createdAt,value
2018-02-12T00:00:30.315Z,79.20
2018-02-12T00:02:56.551Z,78.80
2018-02-12T00:05:22.803Z,79.10
2018-02-12T00:07:49.015Z,78.60
2018-02-12T00:10:15.246Z,78.50
2018-02-12T00:12:41.458Z,78.30
2018-02-12T00:15:07.731Z,78.30
2018-02-12T00:17:34.703Z,78.80
2018-02-12T00:20:01.751Z,80.10
2018-02-12T00:22:28.943Z,80.10
2018-02-12T00:24:55.199Z,81.30
2018-02-12T00:27:21.427Z,82.20
2018-02-12T00:29:47.662Z,83.40
2018-02-12T00:32:13.879Z,84.40
2018-02-12T00:34:40.089Z,85.30
2018-02-12T00:37:06.318Z,86.00
2018-02-12T00:39:32.547Z,86.70
2018-02-12T00:42:01.979Z,86.90
2018-02-12T00:44:28.214Z,86.40
2018-02-12T00:46:54.510Z,85.50
2018-02-12T00:49:20.742Z,85.50
2018-02-12T00:51:47.000Z,85.30
2018-02-12T00:54:13.214Z,85.50
2018-02-12T00:56:39.438Z,85.10
2018-02-12T00:59:05.650Z,84.40
2018-02-12T01:01:31.916Z,84.20
2018-02-12T01:03:58.152Z,84.10
2018-02-12T01:06:24.386Z,84.10
2018-02-12T01:08:50.623Z,83.20
2018-02-12T01:11:16.886Z,83.40
2018-02-12T01:13:43.099Z,83.60
2018-02-12T01:16:09.892Z,83.80
2018-02-12T01:18:36.110Z,83.70
2018-02-12T01:21:02.730Z,83.20
2018-02-12T01:23:28.950Z,82.90
2018-02-12T01:25:55.919Z,83.10
2018-02-12T01:28:22.155Z,83.10
2018-02-12T01:30:48.439Z,82.80
2018-02-12T01:33:14.663Z,82.40
2018-02-12T01:35:40.911Z,81.60
2018-02-12T01:38:07.133Z,81.60
2018-02-12T01:40:33.363Z,81.50
2018-02-12T01:42:59.751Z,81.30
2018-02-12T01:45:25.979Z,81.30
2018-02-12T01:47:52.251Z,81.40
2018-02-12T01:50:18.514Z,81.70
2018-02-12T01:52:47.654Z,81.80
2018-02-12T01:55:13.943Z,81.70
2018-02-12T01:57:40.184Z,82.00
2018-02-12T02:00:06.433Z,81.60
2018-02-12T02:02:32.679Z,81.50
2018-02-12T02:04:58.899Z,81.60
2018-02-12T02:07:25.134Z,82.00
2018-02-12T02:09:51.380Z,82.00
2018-02-12T02:12:17.626Z,81.80
2018-02-12T02:14:43.834Z,81.90
2018-02-12T02:17:10.063Z,81.60
2018-02-12T02:19:36.318Z,81.40
2018-02-12T02:22:02.575Z,81.90
2018-02-12T02:24:29.522Z,82.00
2018-02-12T02:26:56.487Z,81.90
2018-02-12T02:29:22.702Z,82.00
2018-02-12T02:31:49.722Z,81.80
2018-02-12T02:34:15.931Z,81.70
2018-02-12T02:36:42.164Z,81.70
2018-02-12T02:39:08.416Z,81.50
2018-02-12T02:41:34.631Z,81.40
2018-02-12T02:44:00.899Z,81.20
2018-02-12T02:46:27.126Z,81.50
2018-02-12T02:48:53.366Z,81.40
2018-02-12T02:51:19.588Z,81.20
2018-02-12T02:53:46.563Z,80.60
2018-02-12T02:56:12.787Z,80.60
2018-02-12T02:58:39.039Z,80.60
2018-02-12T03:01:05.263Z,80.60
2018-02-12T03:03:31.496Z,80.90
2018-02-12T03:05:57.757Z,81.00
2018-02-12T03:08:23.984Z,80.80
2018-02-12T03:10:50.221Z,80.80
2018-02-12T03:13:16.419Z,80.90
2018-02-12T03:15:42.675Z,81.20
2018-02-12T03:18:08.898Z,81.00
2018-02-12T03:20:35.123Z,80.60
2018-02-12T03:23:01.346Z,81.00
2018-02-12T03:25:27.562Z,81.80
2018-02-12T03:27:53.859Z,81.50
2018-02-12T03:30:20.111Z,80.90
2018-02-12T03:32:46.356Z,80.90
2018-02-12T03:35:12.593Z,80.90
2018-02-12T03:37:38.860Z,80.70
2018-02-12T03:40:05.119Z,80.50
2018-02-12T03:42:31.354Z,80.30
2018-02-12T03:44:57.584Z,80.50
2018-02-12T03:47:24.575Z,80.30
2018-02-12T03:49:50.788Z,80.30
2018-02-12T03:52:17.010Z,80.30
2018-02-12T03:54:43.344Z,80.10
2018-02-12T03:57:09.800Z,79.60
2018-02-12T03:59:36.049Z,79.70
2018-02-12T04:02:02.303Z,79.40
2018-02-12T04:04:28.546Z,79.60
2018-02-12T04:06:55.514Z,79.00
2018-02-12T04:09:21.763Z,79.00
2018-02-12T04:11:48.511Z,79.20
2018-02-12T04:14:14.779Z,79.30
2018-02-12T04:16:41.035Z,79.30
2018-02-12T04:19:07.258Z,78.90
2018-02-12T04:21:33.499Z,79.10
2018-02-12T04:23:59.706Z,79.20
2018-02-12T04:26:25.954Z,78.60
2018-02-12T04:28:52.923Z,79.00
2018-02-12T04:31:19.270Z,79.00
2018-02-12T04:33:45.475Z,79.30
2018-02-12T04:36:12.475Z,79.00
2018-02-12T04:38:38.747Z,79.00
2018-02-12T04:41:05.031Z,79.20
2018-02-12T04:43:31.424Z,79.60
2018-02-12T04:45:57.692Z,79.30
2018-02-12T04:48:23.923Z,79.60
2018-02-12T04:50:50.131Z,79.30
2018-02-12T04:53:16.397Z,79.30
2018-02-12T04:55:42.603Z,79.40
2018-02-12T04:58:08.838Z,80.00
2018-02-12T05:00:35.066Z,79.00
2018-02-12T05:03:01.309Z,79.30
2018-02-12T05:05:27.555Z,79.20
2018-02-12T05:07:53.786Z,79.30
2018-02-12T05:10:20.027Z,79.70
2018-02-12T05:12:46.276Z,79.50
2018-02-12T05:15:12.752Z,79.30
2018-02-12T05:17:39.001Z,79.30
2018-02-12T05:20:05.763Z,79.30
2018-02-12T05:22:31.986Z,79.50
2018-02-12T05:24:58.247Z,79.20
2018-02-12T05:27:24.455Z,79.50
2018-02-12T05:29:50.740Z,79.20
2018-02-12T05:32:16.977Z,79.00
2018-02-12T05:34:43.387Z,78.80
2018-02-12T05:37:09.612Z,79.30
2018-02-12T05:39:36.735Z,79.20
2018-02-12T05:42:02.947Z,79.20
2018-02-12T05:44:29.172Z,79.50
2018-02-12T05:46:55.414Z,79.50
2018-02-12T05:49:21.727Z,79.50
2018-02-12T05:51:47.974Z,79.30
2018-02-12T05:54:14.383Z,79.00
2018-02-12T05:56:40.627Z,79.30
2018-02-12T05:59:07.258Z,79.30
2018-02-12T06:01:33.507Z,79.30
2018-02-12T06:03:59.811Z,79.70
2018-02-12T06:06:26.064Z,79.60
2018-02-12T06:08:52.303Z,79.80
2018-02-12T06:11:18.575Z,79.90
2018-02-12T06:13:44.804Z,79.80
2018-02-12T06:16:11.763Z,80.30
2018-02-12T06:18:38.266Z,80.40
2018-02-12T06:21:05.352Z,80.30
2018-02-12T06:23:31.688Z,80.30
2018-02-12T06:25:57.955Z,80.90
2018-02-12T06:28:24.318Z,81.20
2018-02-12T06:30:50.572Z,81.50
2018-02-12T06:33:16.894Z,81.60
2018-02-12T06:35:43.137Z,81.50
2018-02-12T06:38:09.382Z,81.40
2018-02-12T06:40:35.602Z,81.20
2018-02-12T06:43:01.831Z,81.60
2018-02-12T06:45:28.079Z,81.30
2018-02-12T06:47:54.390Z,80.70
2018-02-12T06:50:20.633Z,80.90
2018-02-12T06:52:46.934Z,80.50
2018-02-12T06:55:13.146Z,80.30
2018-02-12T06:57:39.467Z,80.60
2018-02-12T07:00:05.706Z,80.70
2018-02-12T07:02:32.054Z,80.30
2018-02-12T07:04:59.035Z,80.10
2018-02-12T07:07:25.243Z,80.00
2018-02-12T07:09:52.303Z,80.00
2018-02-12T07:12:18.551Z,80.00
2018-02-12T07:14:44.836Z,80.00
2018-02-12T07:17:11.090Z,80.00
2018-02-12T07:19:38.039Z,79.70
2018-02-12T07:22:05.019Z,79.40
2018-02-12T07:24:31.292Z,79.40
2018-02-12T07:26:57.544Z,79.10
2018-02-12T07:29:23.791Z,79.40
2018-02-12T07:31:50.952Z,79.40
2018-02-12T07:34:17.178Z,79.50
2018-02-12T07:36:43.536Z,79.30
2018-02-12T07:39:09.747Z,79.40
2018-02-12T07:41:35.992Z,79.20
2018-02-12T07:44:02.245Z,79.20
2018-02-12T07:46:28.541Z,79.40
2018-02-12T07:48:54.779Z,79.50
2018-02-12T07:51:21.051Z,79.00
2018-02-12T07:53:47.287Z,79.00
2018-02-12T07:56:13.500Z,78.90
2018-02-12T07:58:39.962Z,78.40
2018-02-12T08:01:06.215Z,78.50
2018-02-12T08:03:32.530Z,78.60
2018-02-12T08:05:59.491Z,78.00
2018-02-12T08:08:25.788Z,77.90
2018-02-12T08:10:52.229Z,78.60
2018-02-12T08:13:18.450Z,78.10
2018-02-12T08:15:44.697Z,77.80
2018-02-12T08:18:10.907Z,77.60
2018-02-12T08:20:37.177Z,77.20
2018-02-12T08:23:03.415Z,76.90
2018-02-12T08:28:24.062Z,77.10
2018-02-12T08:30:50.302Z,76.40
2018-02-12T08:33:17.031Z,76.30
2018-02-12T08:35:43.280Z,76.00
2018-02-12T08:38:09.555Z,76.00
2018-02-12T08:40:35.808Z,75.70
2018-02-12T08:43:02.152Z,76.00
2018-02-12T08:45:28.379Z,75.00
2018-02-12T08:47:57.907Z,75.00
2018-02-12T08:50:24.151Z,75.00
2018-02-12T08:52:50.975Z,75.50
2018-02-12T08:55:17.178Z,75.70
2018-02-12T08:57:43.439Z,75.90
2018-02-12T09:00:09.671Z,75.70
2018-02-12T09:02:36.271Z,75.20
2018-02-12T09:05:02.631Z,75.00
2018-02-12T09:07:28.907Z,74.20
2018-02-12T09:09:55.903Z,73.50
2018-02-12T09:12:23.360Z,73.50
2018-02-12T09:14:50.586Z,73.20
2018-02-12T09:17:21.471Z,73.50
2018-02-12T09:19:49.446Z,73.00
2018-02-12T09:22:15.726Z,72.90
2018-02-12T09:24:41.995Z,73.60
2018-02-12T09:27:08.727Z,73.80
2018-02-12T09:29:34.979Z,73.50
2018-02-12T09:32:01.431Z,73.80
2018-02-12T09:34:27.630Z,73.40
2018-02-12T09:37:00.366Z,72.90
2018-02-12T09:39:26.595Z,72.10
2018-02-12T09:41:53.600Z,71.90
2018-02-12T09:44:19.822Z,71.90
2018-02-12T09:46:46.207Z,70.50
2018-02-12T09:49:12.518Z,69.30
2018-02-12T09:51:38.935Z,69.20
2018-02-12T09:54:05.151Z,69.20
2018-02-12T09:56:33.312Z,70.20
2018-02-12T09:58:59.633Z,70.50
2018-02-12T10:01:25.994Z,69.80
2018-02-12T10:03:52.274Z,70.30
2018-02-12T10:06:18.567Z,70.70
2018-02-12T10:08:44.836Z,69.00
2018-02-12T10:11:11.050Z,68.60
2018-02-12T10:13:37.275Z,67.20
2018-02-12T10:16:03.511Z,67.00
2018-02-12T10:18:29.763Z,66.70
2018-02-12T10:20:55.987Z,65.80
2018-02-12T10:23:22.247Z,66.30
2018-02-12T10:25:48.613Z,66.70
2018-02-12T10:28:15.085Z,65.00
2018-02-12T10:30:41.423Z,65.20
2018-02-12T10:33:07.651Z,65.90
2018-02-12T10:35:33.972Z,66.60
2018-02-12T10:38:00.174Z,66.10
2018-02-12T10:40:27.141Z,66.10
2018-02-12T10:42:53.349Z,66.10
2018-02-12T10:45:19.599Z,64.10
2018-02-12T10:47:45.826Z,64.20
2018-02-12T10:50:12.080Z,64.00
2018-02-12T10:52:38.286Z,63.60
2018-02-12T10:55:04.506Z,62.70
2018-02-12T10:57:30.771Z,61.60
2018-02-12T10:59:57.398Z,61.30
2018-02-12T11:02:23.706Z,61.30
2018-02-12T11:04:50.057Z,61.30
2018-02-12T11:07:16.311Z,62.10
2018-02-12T11:09:43.287Z,63.10
2018-02-12T11:12:10.275Z,62.60
2018-02-12T11:14:36.498Z,62.60
2018-02-12T11:17:02.880Z,63.80
2018-02-12T11:19:29.842Z,64.40
2018-02-12T11:21:56.807Z,62.10
2018-02-12T11:24:23.027Z,62.00
2018-02-12T11:26:49.411Z,61.70
2018-02-12T11:29:15.682Z,61.60
2018-02-12T11:31:41.902Z,62.40
2018-02-12T11:34:08.897Z,62.40
2018-02-12T11:36:35.130Z,62.40
2018-02-12T11:39:01.371Z,61.00
2018-02-12T11:41:27.578Z,60.60
2018-02-12T11:43:53.899Z,60.70
2018-02-12T11:46:20.147Z,60.30
2018-02-12T11:48:46.524Z,61.00
2018-02-12T11:51:12.814Z,61.60
2018-02-12T11:53:39.135Z,62.70
2018-02-12T11:56:05.380Z,63.10
2018-02-12T11:58:31.644Z,61.80
2018-02-12T12:00:57.887Z,62.00
2018-02-12T12:03:24.135Z,59.70
2018-02-12T12:05:51.842Z,60.50
2018-02-12T12:08:18.136Z,60.60
2018-02-12T12:10:46.400Z,60.50
2018-02-12T12:13:12.740Z,59.10
2018-02-12T12:15:38.995Z,57.80
2018-02-12T12:18:05.239Z,58.20
2018-02-12T12:20:31.518Z,57.30
2018-02-12T12:22:57.763Z,58.40
2018-02-12T12:25:24.070Z,57.90
2018-02-12T12:27:50.294Z,56.70
2018-02-12T12:30:16.571Z,58.10
2018-02-12T12:32:42.762Z,57.50
2018-02-12T12:35:09.019Z,58.20
2018-02-12T12:37:35.293Z,57.60
2018-02-12T12:40:01.554Z,58.40
2018-02-12T12:42:27.787Z,58.80
2018-02-12T12:44:54.479Z,59.00
2018-02-12T12:47:22.171Z,58.90
2018-02-12T12:49:47.061Z,58.10
2018-02-12T12:52:13.352Z,57.70
2018-02-12T12:54:39.935Z,57.90
2018-02-12T12:57:06.166Z,57.80
2018-02-12T12:59:32.585Z,55.20
2018-02-12T13:01:58.822Z,54.80
2018-02-12T13:04:25.152Z,55.80
2018-02-12T13:06:51.383Z,56.10
2018-02-12T13:09:17.682Z,57.10
2018-02-12T13:11:44.076Z,56.90
2018-02-12T13:14:10.319Z,56.50
2018-02-12T13:16:36.543Z,56.40
2018-02-12T13:19:02.839Z,55.70
2018-02-12T13:21:29.078Z,54.90
2018-02-12T13:23:55.612Z,55.10
2018-02-12T13:26:21.868Z,54.60
2018-02-12T13:28:48.218Z,55.30
2018-02-12T13:31:14.465Z,56.00
2018-02-12T13:33:41.476Z,55.80
2018-02-12T13:36:07.743Z,55.70
2018-02-12T13:38:34.715Z,55.70
2018-02-12T13:41:00.934Z,55.70
2018-02-12T13:43:27.178Z,56.40
2018-02-12T13:45:53.426Z,56.50
2018-02-12T13:48:19.663Z,57.40
2018-02-12T13:50:45.915Z,57.10
2018-02-12T13:53:12.195Z,57.10
2018-02-12T13:55:38.422Z,56.80
2018-02-12T13:58:04.715Z,56.40
2018-02-12T14:00:30.979Z,56.10
2018-02-12T14:02:58.057Z,54.20
2018-02-12T14:05:24.315Z,54.20
2018-02-12T14:07:50.566Z,53.50
2018-02-12T14:10:16.806Z,51.80
2018-02-12T14:12:43.108Z,52.00
2018-02-12T14:15:09.354Z,50.80
2018-02-12T14:17:35.642Z,49.40
2018-02-12T14:20:01.896Z,48.30
2018-02-12T14:22:28.559Z,49.50
2018-02-12T14:24:55.803Z,49.60
2018-02-12T14:27:22.050Z,50.00
2018-02-12T14:29:49.216Z,49.40
2018-02-12T14:32:16.232Z,49.90
2018-02-12T14:34:43.222Z,50.90
2018-02-12T14:37:09.667Z,50.80
2018-02-12T14:39:35.931Z,52.30
2018-02-12T14:42:08.239Z,53.10
2018-02-12T14:44:34.447Z,53.10
2018-02-12T14:47:00.692Z,57.40
2018-02-12T14:49:27.658Z,66.60
2018-02-12T14:51:54.870Z,70.20
2018-02-12T14:54:21.212Z,70.10
2018-02-12T14:56:47.458Z,73.00
2018-02-12T14:59:14.422Z,73.60
2018-02-12T15:01:40.789Z,75.00
2018-02-12T15:04:06.987Z,73.80
2018-02-12T15:06:33.955Z,73.80
2018-02-12T15:09:00.374Z,73.70
2018-02-12T15:11:27.735Z,69.80
2018-02-12T15:13:54.170Z,69.80
2018-02-12T15:16:20.635Z,63.90
2018-02-12T15:18:47.092Z,58.70
2018-02-12T15:21:13.332Z,57.00
2018-02-12T15:23:39.634Z,60.20
2018-02-12T15:26:06.675Z,60.00
2018-02-12T15:28:32.963Z,59.00
2018-02-12T15:30:59.936Z,58.10
2018-02-12T15:33:26.919Z,55.10
2018-02-12T15:35:53.203Z,55.00
2018-02-12T15:38:20.221Z,50.80
2018-02-12T15:40:46.460Z,50.80
2018-02-12T15:43:12.708Z,50.70
2018-02-12T15:45:39.764Z,50.70
2018-02-12T15:48:06.016Z,50.70
2018-02-12T15:50:32.226Z,52.80
2018-02-12T15:52:59.242Z,54.30
2018-02-12T15:55:25.504Z,57.60
2018-02-12T15:57:52.298Z,59.70
2018-02-12T16:00:18.652Z,59.90
2018-02-12T16:02:44.985Z,59.60
2018-02-12T16:05:11.227Z,60.10
2018-02-12T16:07:37.463Z,61.20
2018-02-12T16:10:03.728Z,62.90
2018-02-12T16:12:29.950Z,65.40
2018-02-12T16:14:56.944Z,69.00
2018-02-12T16:17:23.195Z,69.00
2018-02-12T16:19:49.438Z,70.40
2018-02-12T16:22:15.738Z,71.10
2018-02-12T16:24:41.982Z,72.10
2018-02-12T16:27:08.359Z,72.40
2018-02-12T16:29:34.583Z,73.10
2018-02-12T16:32:01.574Z,73.70
2018-02-12T16:34:27.826Z,73.60
2018-02-12T16:36:54.871Z,73.50
2018-02-12T16:39:21.103Z,73.40
2018-02-12T16:41:47.520Z,73.80
2018-02-12T16:44:13.750Z,74.60
2018-02-12T16:46:39.986Z,74.60
2018-02-12T16:49:06.328Z,75.00
2018-02-12T16:51:32.571Z,75.30
2018-02-12T16:53:58.809Z,75.60
2018-02-12T16:56:25.356Z,75.90
2018-02-12T16:58:52.321Z,76.20
2018-02-12T17:01:19.324Z,76.50
2018-02-12T17:03:45.582Z,76.40
2018-02-12T17:06:11.799Z,76.50
2018-02-12T17:08:38.097Z,76.40
2018-02-12T17:11:04.327Z,76.40
2018-02-12T17:13:30.600Z,76.30
2018-02-12T17:15:56.823Z,76.50
2018-02-12T17:18:23.083Z,75.90
2018-02-12T17:20:50.033Z,75.60
2018-02-12T17:23:16.999Z,75.00
2018-02-12T17:25:43.286Z,75.00
2018-02-12T17:28:09.568Z,75.40
2018-02-12T17:30:35.798Z,75.00
2018-02-12T17:33:02.215Z,74.20
2018-02-12T17:35:28.427Z,74.60
2018-02-12T17:37:55.477Z,73.90
2018-02-12T17:40:22.510Z,74.00
2018-02-12T17:42:48.735Z,74.00
2018-02-12T17:45:15.174Z,73.60
2018-02-12T17:47:41.539Z,73.10
2018-02-12T17:50:07.767Z,73.10
2018-02-12T17:52:34.895Z,72.40
2018-02-12T17:55:02.107Z,72.30
2018-02-12T17:57:28.922Z,72.50
2018-02-12T17:59:55.360Z,72.60
2018-02-12T18:02:21.602Z,72.40
2018-02-12T18:04:53.887Z,72.20
2018-02-12T18:07:20.144Z,71.70
2018-02-12T18:09:46.988Z,71.30
2018-02-12T18:12:13.290Z,71.60
2018-02-12T18:14:40.966Z,71.40
2018-02-12T18:17:07.434Z,70.80
2018-02-12T18:19:33.655Z,70.60
2018-02-12T18:21:59.896Z,71.00
2018-02-12T18:24:26.259Z,71.30
2018-02-12T18:26:52.570Z,71.20
2018-02-12T18:29:19.555Z,70.40
2018-02-12T18:31:45.879Z,70.40
2018-02-12T18:34:12.108Z,70.10
2018-02-12T18:36:38.355Z,69.90
2018-02-12T18:39:04.593Z,69.80
2018-02-12T18:41:30.844Z,70.10
2018-02-12T18:43:57.084Z,70.30
2018-02-12T18:46:23.419Z,70.60
2018-02-12T18:48:49.713Z,70.60
2018-02-12T18:51:15.955Z,70.40
2018-02-12T18:53:42.215Z,70.40
2018-02-12T18:56:08.521Z,71.00
2018-02-12T18:58:34.730Z,71.40
2018-02-12T19:01:01.059Z,71.90
2018-02-12T19:03:27.298Z,71.40
2018-02-12T19:05:53.603Z,71.80
2018-02-12T19:08:20.631Z,71.40
2018-02-12T19:10:46.980Z,71.40
2018-02-12T19:13:13.223Z,71.80
2018-02-12T19:15:39.455Z,72.10
2018-02-12T19:18:05.704Z,72.30
2018-02-12T19:20:32.031Z,72.40
2018-02-12T19:22:58.255Z,72.10
2018-02-12T19:25:24.687Z,71.70
2018-02-12T19:27:50.914Z,71.50
2018-02-12T19:30:17.285Z,71.80
2018-02-12T19:32:44.291Z,71.00
2018-02-12T19:35:10.527Z,71.00
2018-02-12T19:37:36.808Z,71.30
2018-02-12T19:40:03.827Z,71.40
2018-02-12T19:42:30.059Z,71.40
2018-02-12T19:44:56.436Z,71.40
2018-02-12T19:47:22.694Z,71.50
2018-02-12T19:49:49.131Z,71.50
2018-02-12T19:52:15.363Z,71.50
2018-02-12T19:54:41.606Z,71.80
2018-02-12T19:57:07.854Z,71.80
2018-02-12T19:59:34.129Z,71.60
2018-02-12T20:02:00.411Z,71.20
2018-02-12T20:04:26.754Z,71.20
2018-02-12T20:06:53.056Z,71.40
2018-02-12T20:09:19.540Z,71.30
2018-02-12T20:11:45.981Z,71.60
2018-02-12T20:14:12.885Z,71.40
2018-02-12T20:16:39.960Z,71.60
2018-02-12T20:19:06.311Z,71.60
2018-02-12T20:21:32.577Z,71.80
2018-02-12T20:23:58.820Z,72.60
2018-02-12T20:26:25.087Z,72.40
2018-02-12T20:28:51.329Z,72.40
2018-02-12T20:31:17.579Z,73.60
2018-02-12T20:33:43.794Z,73.30
2018-02-12T20:36:10.091Z,73.10
2018-02-12T20:38:37.130Z,73.20
2018-02-12T20:41:05.375Z,73.20
2018-02-12T20:43:31.926Z,73.10
2018-02-12T20:45:58.351Z,73.50
2018-02-12T20:48:24.736Z,73.50
2018-02-12T20:50:51.025Z,73.70
2018-02-12T20:53:18.015Z,73.80
2018-02-12T20:55:44.247Z,73.60
2018-02-12T20:58:10.539Z,73.50
2018-02-12T21:00:36.883Z,73.30
2018-02-12T21:03:03.304Z,73.10
2018-02-12T21:05:30.274Z,73.20
2018-02-12T21:07:56.528Z,73.20
2018-02-12T21:10:22.767Z,73.30
2018-02-12T21:12:49.225Z,73.50
2018-02-12T21:15:15.498Z,73.40
2018-02-12T21:17:41.727Z,73.40
2018-02-12T21:20:08.074Z,73.20
2018-02-12T21:22:34.286Z,72.90
2018-02-12T21:25:00.530Z,73.00
2018-02-12T21:27:26.784Z,72.90
2018-02-12T21:29:53.301Z,72.40
2018-02-12T21:32:19.544Z,72.50
2018-02-12T21:34:45.971Z,72.50
2018-02-12T21:37:12.200Z,72.30
2018-02-12T21:39:38.515Z,72.20
2018-02-12T21:42:04.770Z,72.30
2018-02-12T21:44:31.039Z,72.20
2018-02-12T21:46:57.295Z,72.20
2018-02-12T21:49:24.292Z,72.30
2018-02-12T21:51:50.640Z,72.30
2018-02-12T21:54:16.822Z,72.60
2018-02-12T21:56:43.087Z,72.70
2018-02-12T21:59:09.325Z,72.60
2018-02-12T22:01:35.574Z,72.70
2018-02-12T22:04:01.798Z,72.90
2018-02-12T22:06:28.067Z,72.90
2018-02-12T22:08:54.606Z,73.10
2018-02-12T22:11:20.862Z,72.60
2018-02-12T22:13:47.083Z,72.70
2018-02-12T22:16:13.339Z,72.70
2018-02-12T22:18:39.671Z,72.30
2018-02-12T22:21:05.917Z,72.10
2018-02-12T22:23:32.199Z,71.70
2018-02-12T22:25:58.426Z,71.00
2018-02-12T22:28:24.727Z,71.20
2018-02-12T22:30:50.963Z,70.70
2018-02-12T22:33:17.271Z,70.60
2018-02-12T22:35:43.542Z,70.70
2018-02-12T22:38:09.895Z,70.60
2018-02-12T22:40:36.107Z,70.10
2018-02-12T22:43:03.095Z,70.30
2018-02-12T22:45:29.323Z,70.30
2018-02-12T22:47:55.722Z,70.10
2018-02-12T22:50:21.956Z,70.60
2018-02-12T22:52:48.197Z,70.90
2018-02-12T22:55:14.435Z,70.80
2018-02-12T22:57:40.696Z,70.80
2018-02-12T23:00:06.914Z,70.70
2018-02-12T23:02:33.166Z,70.70
2018-02-12T23:04:59.393Z,71.00
2018-02-12T23:07:25.615Z,71.10
2018-02-12T23:09:51.855Z,71.30
2018-02-12T23:12:18.072Z,71.40
2018-02-12T23:14:44.325Z,71.90
2018-02-12T23:17:13.379Z,71.30
2018-02-12T23:19:39.678Z,70.60
2018-02-12T23:22:05.900Z,70.50
2018-02-12T23:24:32.887Z,71.60
2018-02-12T23:26:59.131Z,70.80
2018-02-12T23:29:25.355Z,70.60
2018-02-12T23:31:51.594Z,70.50
2018-02-12T23:34:17.874Z,70.50
2018-02-12T23:36:44.119Z,70.70
2018-02-12T23:39:10.414Z,70.80
2018-02-12T23:41:36.654Z,70.40
2018-02-12T23:44:02.983Z,70.40
2018-02-12T23:46:29.223Z,70.50
2018-02-12T23:48:55.455Z,70.30
2018-02-12T23:51:21.708Z,70.10
2018-02-12T23:53:47.948Z,70.40
2018-02-12T23:56:14.215Z,70.70
2018-02-12T23:58:40.432Z,70.40
